createdAt,value
2017-07-26T00:00:00.028Z,76.35
2017-07-26T00:00:04.094Z,76.30
2017-07-26T00:00:08.099Z,76.50
2017-07-26T00:00:12.136Z,75.95
2017-07-26T00:00:16.128Z,76.10
2017-07-26T00:00:20.133Z,76.50
2017-07-26T00:00:24.959Z,77.10
2017-07-26T00:00:28.929Z,75.10
2017-07-26T00:00:32.948Z,75.50
2017-07-26T00:00:37.734Z,74.55
2017-07-26T00:00:41.742Z,73.83
2017-07-26T00:00:46.505Z,73.95
2017-07-26T00:00:50.527Z,76.23
2017-07-26T00:00:54.547Z,75.70
2017-07-26T00:00:59.325Z,74.35
2017-07-26T00:01:03.337Z,74.63
2017-07-26T00:01:07.366Z,73.70
2017-07-26T00:01:11.390Z,73.80
2017-07-26T00:01:15.411Z,73.80
2017-07-26T00:01:19.418Z,74.75
2017-07-26T00:01:23.441Z,75.25
2017-07-26T00:01:28.236Z,75.35
2017-07-26T00:01:33.007Z,76.23
2017-07-26T00:01:37.031Z,77.80
2017-07-26T00:01:41.038Z,78.33
2017-07-26T00:01:45.804Z,78.30
2017-07-26T00:01:49.817Z,76.30
2017-07-26T00:01:53.844Z,74.85
2017-07-26T00:01:58.678Z,75.20
2017-07-26T00:02:02.686Z,75.10
2017-07-26T00:02:06.691Z,74.70
2017-07-26T00:02:10.720Z,75.30
2017-07-26T00:02:14.724Z,75.85
2017-07-26T00:02:18.746Z,77.10
2017-07-26T00:02:22.773Z,75.80
2017-07-26T00:02:26.805Z,75.85
2017-07-26T00:02:31.622Z,75.20
2017-07-26T00:02:35.629Z,76.60
2017-07-26T00:02:40.408Z,75.45
2017-07-26T00:02:44.435Z,74.87
2017-07-26T00:02:49.197Z,75.20
2017-07-26T00:02:53.217Z,74.90
2017-07-26T00:02:57.250Z,75.20
2017-07-26T00:03:01.268Z,74.90
2017-07-26T00:03:05.263Z,75.65
2017-07-26T00:03:09.274Z,75.45
2017-07-26T00:03:13.307Z,74.95
2017-07-26T00:03:18.080Z,74.25
2017-07-26T00:03:22.104Z,74.43
2017-07-26T00:03:26.105Z,76.00
2017-07-26T00:03:30.126Z,75.80
2017-07-26T00:03:34.172Z,72.90
2017-07-26T00:03:38.170Z,74.15
2017-07-26T00:03:42.179Z,75.65
2017-07-26T00:03:46.980Z,75.20
2017-07-26T00:03:50.995Z,75.13
2017-07-26T00:03:55.007Z,74.20
2017-07-26T00:03:59.012Z,73.55
2017-07-26T00:04:03.023Z,72.90
2017-07-26T00:04:07.035Z,72.95
2017-07-26T00:04:11.035Z,73.85
2017-07-26T00:04:15.052Z,76.20
2017-07-26T00:04:19.079Z,76.10
2017-07-26T00:04:23.080Z,75.25
2017-07-26T00:04:27.127Z,74.05
2017-07-26T00:04:31.143Z,74.10
2017-07-26T00:04:35.913Z,74.90
2017-07-26T00:04:39.919Z,75.67
2017-07-26T00:04:43.920Z,77.75
2017-07-26T00:04:47.935Z,78.30
2017-07-26T00:04:52.705Z,78.25
2017-07-26T00:04:56.718Z,79.80
2017-07-26T00:05:00.739Z,81.00
2017-07-26T00:05:04.729Z,81.35
2017-07-26T00:05:09.513Z,80.80
2017-07-26T00:05:13.513Z,79.03
2017-07-26T00:05:17.522Z,76.85
2017-07-26T00:05:21.539Z,76.20
2017-07-26T00:05:26.312Z,77.50
2017-07-26T00:05:30.335Z,77.47
2017-07-26T00:05:35.114Z,77.85
2017-07-26T00:05:39.145Z,75.13
2017-07-26T00:05:43.128Z,71.70
2017-07-26T00:05:47.906Z,72.20
2017-07-26T00:05:51.905Z,70.95
2017-07-26T00:05:55.918Z,69.10
2017-07-26T00:05:59.911Z,68.30
2017-07-26T00:06:03.921Z,67.90
2017-07-26T00:06:08.685Z,67.55
2017-07-26T00:06:12.684Z,67.57
2017-07-26T00:06:16.706Z,68.25
2017-07-26T00:06:20.714Z,69.30
2017-07-26T00:06:25.494Z,68.30
2017-07-26T00:06:29.498Z,68.17
2017-07-26T00:06:33.515Z,67.65
2017-07-26T00:06:37.501Z,68.05
2017-07-26T00:06:41.505Z,69.00
2017-07-26T00:06:46.270Z,68.15
2017-07-26T00:06:50.265Z,67.87
2017-07-26T00:06:54.273Z,68.20
2017-07-26T00:06:58.278Z,68.40
2017-07-26T00:07:02.310Z,69.40
2017-07-26T00:07:07.082Z,69.95
2017-07-26T00:07:11.136Z,70.70
2017-07-26T00:07:15.146Z,70.00
2017-07-26T00:07:19.152Z,70.45
2017-07-26T00:07:23.144Z,70.65
2017-07-26T00:07:27.162Z,72.05
2017-07-26T00:07:31.160Z,73.65
2017-07-26T00:07:35.176Z,73.25
2017-07-26T00:07:39.191Z,73.40
2017-07-26T00:07:43.189Z,73.75
2017-07-26T00:07:47.208Z,74.45
2017-07-26T00:07:51.208Z,75.50
2017-07-26T00:07:55.383Z,75.75
2017-07-26T00:07:59.391Z,75.75
2017-07-26T00:08:03.409Z,75.85
2017-07-26T00:08:07.400Z,76.05
2017-07-26T00:08:11.426Z,75.70
2017-07-26T00:08:16.210Z,75.70
2017-07-26T00:08:20.198Z,75.23
2017-07-26T00:08:24.214Z,74.90
2017-07-26T00:08:28.238Z,72.80
2017-07-26T00:08:32.255Z,72.65
2017-07-26T00:08:36.253Z,72.45
2017-07-26T00:08:40.271Z,72.15
2017-07-26T00:08:44.287Z,71.45
2017-07-26T00:08:48.319Z,70.55
2017-07-26T00:08:53.075Z,69.45
2017-07-26T00:08:57.074Z,70.10
2017-07-26T00:09:01.073Z,69.50
2017-07-26T00:09:05.117Z,68.55
2017-07-26T00:09:09.853Z,68.70
2017-07-26T00:09:13.912Z,68.93
2017-07-26T00:09:17.922Z,68.25
2017-07-26T00:09:21.932Z,67.05
2017-07-26T00:09:25.962Z,66.65
2017-07-26T00:09:29.959Z,67.90
2017-07-26T00:09:33.965Z,67.55
2017-07-26T00:09:38.783Z,67.25
2017-07-26T00:09:43.544Z,67.40
2017-07-26T00:09:47.557Z,68.53
2017-07-26T00:09:51.567Z,69.10
2017-07-26T00:09:55.556Z,71.20
2017-07-26T00:09:59.564Z,71.00
2017-07-26T00:10:04.401Z,71.05
2017-07-26T00:10:08.409Z,74.67
2017-07-26T00:10:12.418Z,76.05
2017-07-26T00:10:16.423Z,75.80
2017-07-26T00:10:20.428Z,76.55
2017-07-26T00:10:24.439Z,77.95
2017-07-26T00:10:28.471Z,78.30
2017-07-26T00:10:32.464Z,79.70
2017-07-26T00:10:36.468Z,81.00
2017-07-26T00:10:40.497Z,80.95
2017-07-26T00:10:44.510Z,80.25
2017-07-26T00:10:48.523Z,79.65
2017-07-26T00:10:53.277Z,80.20
2017-07-26T00:10:57.287Z,78.87
2017-07-26T00:11:01.302Z,78.80
2017-07-26T00:11:05.319Z,77.00
2017-07-26T00:11:10.090Z,72.90
2017-07-26T00:11:14.100Z,72.20
2017-07-26T00:11:18.119Z,72.70
2017-07-26T00:11:22.889Z,72.75
2017-07-26T00:11:26.900Z,71.63
2017-07-26T00:11:30.932Z,69.50
2017-07-26T00:11:35.709Z,67.70
2017-07-26T00:11:39.712Z,66.85
2017-07-26T00:11:43.735Z,68.05
2017-07-26T00:11:47.736Z,68.87
2017-07-26T00:11:51.747Z,67.05
2017-07-26T00:11:55.740Z,66.70
2017-07-26T00:11:59.759Z,67.40
2017-07-26T00:12:03.815Z,68.05
2017-07-26T00:12:07.817Z,69.15
2017-07-26T00:12:11.844Z,69.95
2017-07-26T00:12:15.876Z,69.25
2017-07-26T00:12:20.752Z,68.95
2017-07-26T00:12:24.768Z,68.17
2017-07-26T00:12:28.799Z,69.60
2017-07-26T00:12:32.814Z,69.30
2017-07-26T00:12:36.824Z,69.15
2017-07-26T00:12:40.865Z,68.85
2017-07-26T00:12:45.655Z,69.30
2017-07-26T00:12:49.687Z,70.90
2017-07-26T00:12:53.718Z,72.10
2017-07-26T00:12:57.721Z,71.25
2017-07-26T00:13:01.737Z,70.60
2017-07-26T00:13:05.751Z,70.75
2017-07-26T00:13:10.533Z,68.95
2017-07-26T00:13:14.557Z,69.00
2017-07-26T00:13:19.324Z,68.30
2017-07-26T00:13:23.354Z,68.30
2017-07-26T00:13:27.375Z,67.73
2017-07-26T00:13:31.394Z,67.50
2017-07-26T00:13:35.394Z,68.05
2017-07-26T00:13:39.423Z,68.30
2017-07-26T00:13:43.433Z,68.40
2017-07-26T00:13:48.219Z,67.35
2017-07-26T00:13:52.247Z,66.45
2017-07-26T00:13:57.026Z,67.87
2017-07-26T00:14:01.050Z,68.30
2017-07-26T00:14:05.930Z,68.15
2017-07-26T00:14:09.936Z,68.87
2017-07-26T00:14:13.961Z,69.55
2017-07-26T00:14:18.734Z,71.75
2017-07-26T00:14:22.749Z,74.67
2017-07-26T00:14:26.771Z,75.45
2017-07-26T00:14:31.552Z,75.95
2017-07-26T00:14:35.552Z,76.60
2017-07-26T00:14:39.564Z,76.20
2017-07-26T00:14:44.325Z,75.15
2017-07-26T00:14:48.337Z,74.53
2017-07-26T00:14:52.349Z,73.50
2017-07-26T00:14:56.368Z,72.20
2017-07-26T00:15:01.154Z,71.95
2017-07-26T00:15:05.172Z,72.13
2017-07-26T00:15:09.188Z,70.55
2017-07-26T00:15:13.232Z,70.60
2017-07-26T00:15:17.232Z,69.10
2017-07-26T00:15:21.244Z,66.35
2017-07-26T00:15:26.028Z,64.45
2017-07-26T00:15:30.041Z,63.90
2017-07-26T00:15:34.839Z,63.15
2017-07-26T00:15:38.858Z,63.25
2017-07-26T00:15:43.644Z,64.33
2017-07-26T00:15:49.187Z,66.70
2017-07-26T00:15:53.184Z,67.50
2017-07-26T00:15:57.970Z,68.40
2017-07-26T00:16:01.986Z,69.50
2017-07-26T00:16:06.006Z,70.65
2017-07-26T00:16:10.803Z,71.95
2017-07-26T00:16:14.808Z,72.27
2017-07-26T00:16:19.592Z,74.15
2017-07-26T00:16:23.598Z,75.35
2017-07-26T00:16:27.597Z,76.70
2017-07-26T00:16:32.383Z,76.45
2017-07-26T00:16:36.386Z,78.13
2017-07-26T00:16:40.403Z,78.70
2017-07-26T00:16:45.170Z,76.85
2017-07-26T00:16:49.198Z,75.90
2017-07-26T00:16:53.211Z,75.85
2017-07-26T00:16:57.229Z,76.40
2017-07-26T00:17:01.239Z,76.45
2017-07-26T00:17:05.250Z,75.85
2017-07-26T00:17:09.260Z,75.45
2017-07-26T00:17:13.273Z,74.60
2017-07-26T00:17:18.067Z,73.35
2017-07-26T00:17:22.079Z,72.90
2017-07-26T00:17:26.095Z,72.85
2017-07-26T00:17:30.867Z,72.40
2017-07-26T00:17:34.923Z,72.63
2017-07-26T00:17:38.920Z,72.00
2017-07-26T00:17:42.932Z,71.50
2017-07-26T00:17:46.929Z,70.15
2017-07-26T00:17:50.936Z,69.75
2017-07-26T00:17:54.936Z,69.40
2017-07-26T00:17:58.951Z,67.95
2017-07-26T00:18:03.733Z,66.55
2017-07-26T00:18:07.730Z,66.03
2017-07-26T00:18:11.732Z,66.80
2017-07-26T00:18:15.748Z,68.70
2017-07-26T00:18:20.551Z,69.25
2017-07-26T00:18:24.570Z,67.90
2017-07-26T00:18:28.582Z,68.15
2017-07-26T00:18:32.600Z,67.75
2017-07-26T00:18:36.589Z,66.95
2017-07-26T00:18:40.606Z,67.45
2017-07-26T00:18:44.610Z,68.05
2017-07-26T00:18:48.608Z,68.15
2017-07-26T00:18:52.613Z,66.90
2017-07-26T00:18:57.385Z,66.70
2017-07-26T00:19:01.401Z,66.13
2017-07-26T00:19:05.404Z,66.20
2017-07-26T00:19:10.196Z,66.05
2017-07-26T00:19:14.229Z,64.27
2017-07-26T00:19:18.238Z,64.25
2017-07-26T00:19:22.252Z,65.15
2017-07-26T00:19:26.282Z,65.70
2017-07-26T00:19:30.285Z,65.80
2017-07-26T00:19:34.317Z,64.95
2017-07-26T00:19:38.320Z,66.65
2017-07-26T00:19:42.353Z,66.35
2017-07-26T00:19:46.356Z,66.45
2017-07-26T00:19:50.373Z,67.25
2017-07-26T00:19:55.159Z,67.55
2017-07-26T00:19:59.165Z,68.37
2017-07-26T00:20:03.164Z,70.65
2017-07-26T00:20:07.176Z,70.80
2017-07-26T00:20:11.959Z,71.05
2017-07-26T00:20:15.989Z,69.93
2017-07-26T00:20:20.759Z,68.30
2017-07-26T00:20:24.791Z,67.95
2017-07-26T00:20:28.815Z,67.60
2017-07-26T00:20:32.831Z,68.20
2017-07-26T00:20:36.855Z,67.85
2017-07-26T00:20:40.877Z,67.45
2017-07-26T00:20:44.880Z,68.85
2017-07-26T00:20:48.909Z,68.35
2017-07-26T00:20:52.929Z,69.00
2017-07-26T00:20:56.947Z,69.75
2017-07-26T00:21:01.723Z,67.40
2017-07-26T00:21:05.755Z,66.40
2017-07-26T00:21:09.761Z,66.35
2017-07-26T00:21:13.798Z,67.75
2017-07-26T00:21:17.802Z,67.85
2017-07-26T00:21:21.808Z,67.10
2017-07-26T00:21:25.831Z,67.00
2017-07-26T00:21:30.610Z,67.70
2017-07-26T00:21:34.642Z,67.00
2017-07-26T00:21:38.661Z,65.55
2017-07-26T00:21:42.960Z,63.85
2017-07-26T00:21:47.932Z,64.00
2017-07-26T00:21:51.935Z,63.70
2017-07-26T00:21:56.719Z,63.10
2017-07-26T00:22:00.720Z,62.60
2017-07-26T00:22:04.727Z,62.50
2017-07-26T00:22:08.740Z,62.25
2017-07-26T00:22:12.775Z,61.20
2017-07-26T00:22:16.794Z,61.00
2017-07-26T00:22:20.794Z,60.35
2017-07-26T00:22:24.785Z,60.40
2017-07-26T00:22:28.787Z,58.90
2017-07-26T00:22:32.802Z,59.25
2017-07-26T00:22:37.582Z,59.65
2017-07-26T00:22:41.599Z,59.63
2017-07-26T00:22:45.611Z,60.95
2017-07-26T00:22:49.638Z,61.00
2017-07-26T00:22:53.629Z,63.05
2017-07-26T00:22:57.622Z,65.30
2017-07-26T00:23:01.634Z,65.70
2017-07-26T00:23:05.633Z,65.50
2017-07-26T00:23:09.640Z,65.30
2017-07-26T00:23:13.650Z,65.20
2017-07-26T00:23:18.438Z,65.50
2017-07-26T00:23:22.473Z,65.50
2017-07-26T00:23:26.495Z,65.35
2017-07-26T00:23:30.507Z,66.20
2017-07-26T00:23:34.554Z,67.10
2017-07-26T00:23:39.339Z,67.15
2017-07-26T00:23:43.387Z,66.83
2017-07-26T00:23:47.390Z,65.90
2017-07-26T00:23:51.390Z,67.00
2017-07-26T00:23:55.432Z,62.50
2017-07-26T00:23:59.424Z,63.10
2017-07-26T00:24:04.215Z,63.25
2017-07-26T00:24:08.235Z,64.40
2017-07-26T00:24:13.028Z,64.40
2017-07-26T00:24:17.054Z,64.90
2017-07-26T00:24:21.818Z,65.85
2017-07-26T00:24:25.833Z,67.90
2017-07-26T00:24:29.841Z,69.40
2017-07-26T00:24:34.632Z,67.63
2017-07-26T00:24:38.630Z,68.40
2017-07-26T00:24:42.629Z,68.80
2017-07-26T00:24:46.628Z,69.15
2017-07-26T00:24:50.644Z,67.80
2017-07-26T00:24:54.648Z,67.45
2017-07-26T00:24:58.667Z,67.50
2017-07-26T00:25:02.735Z,67.55
2017-07-26T00:25:07.534Z,67.10
2017-07-26T00:25:12.293Z,66.55
2017-07-26T00:25:16.304Z,66.93
2017-07-26T00:25:20.315Z,67.10
2017-07-26T00:25:24.318Z,66.20
2017-07-26T00:25:28.343Z,63.75
2017-07-26T00:25:32.367Z,64.00
2017-07-26T00:25:36.373Z,64.05
2017-07-26T00:25:40.393Z,63.35
2017-07-26T00:25:44.393Z,63.30
2017-07-26T00:25:48.431Z,62.70
2017-07-26T00:25:52.439Z,63.25
2017-07-26T00:25:56.444Z,63.55
2017-07-26T00:26:00.462Z,64.15
2017-07-26T00:26:04.457Z,64.60
2017-07-26T00:26:08.466Z,64.90
2017-07-26T00:26:13.264Z,64.87
2017-07-26T00:26:17.266Z,67.00
2017-07-26T00:26:21.283Z,68.55
2017-07-26T00:26:25.307Z,68.15
2017-07-26T00:26:29.315Z,68.60
2017-07-26T00:26:33.335Z,68.95
2017-07-26T00:26:37.362Z,68.95
2017-07-26T00:26:41.387Z,68.80
2017-07-26T00:26:45.398Z,67.85
2017-07-26T00:26:49.403Z,68.25
2017-07-26T00:26:53.418Z,67.80
2017-07-26T00:26:57.434Z,66.80
2017-07-26T00:27:02.234Z,65.30
2017-07-26T00:27:07.020Z,65.65
2017-07-26T00:27:11.018Z,65.50
2017-07-26T00:27:15.039Z,63.65
2017-07-26T00:27:19.055Z,59.90
2017-07-26T00:27:23.062Z,58.65
2017-07-26T00:27:27.077Z,58.60
2017-07-26T00:27:31.082Z,58.40
2017-07-26T00:27:35.130Z,57.65
2017-07-26T00:27:39.132Z,57.30
2017-07-26T00:27:43.153Z,58.30
2017-07-26T00:27:47.157Z,60.35
2017-07-26T00:27:51.164Z,59.85
2017-07-26T00:27:55.194Z,60.30
2017-07-26T00:27:59.967Z,60.95
2017-07-26T00:28:03.979Z,61.10
2017-07-26T00:28:07.977Z,62.40
2017-07-26T00:28:12.757Z,62.45
2017-07-26T00:28:16.761Z,63.40
2017-07-26T00:28:20.774Z,64.45
2017-07-26T00:28:24.793Z,64.40
2017-07-26T00:28:28.780Z,64.40
2017-07-26T00:28:32.780Z,64.70
2017-07-26T00:28:36.781Z,64.95
2017-07-26T00:28:40.790Z,65.25
2017-07-26T00:28:44.819Z,63.30
2017-07-26T00:28:48.836Z,63.15
2017-07-26T00:28:52.842Z,63.35
2017-07-26T00:28:57.614Z,64.05
2017-07-26T00:29:01.664Z,64.40
2017-07-26T00:29:05.660Z,62.95
2017-07-26T00:29:09.661Z,62.85
2017-07-26T00:29:13.685Z,62.40
2017-07-26T00:29:17.686Z,61.50
2017-07-26T00:29:21.688Z,62.25
2017-07-26T00:29:25.730Z,62.40
2017-07-26T00:29:29.754Z,61.97
2017-07-26T00:29:33.754Z,61.20
2017-07-26T00:29:37.748Z,61.50
2017-07-26T00:29:41.759Z,63.25
2017-07-26T00:29:45.776Z,63.60
2017-07-26T00:29:49.793Z,65.45
2017-07-26T00:29:53.809Z,67.70
2017-07-26T00:29:57.834Z,68.15
2017-07-26T00:30:01.904Z,69.15
2017-07-26T00:30:05.900Z,69.00
2017-07-26T00:30:09.964Z,69.85
2017-07-26T00:30:13.977Z,71.10
2017-07-26T00:30:17.982Z,71.20
2017-07-26T00:30:21.995Z,72.55
2017-07-26T00:30:26.006Z,74.10
2017-07-26T00:30:31.642Z,75.60
2017-07-26T00:30:35.664Z,76.40
2017-07-26T00:30:40.436Z,76.35
2017-07-26T00:30:44.436Z,76.20
2017-07-26T00:30:48.447Z,75.83
2017-07-26T00:30:52.453Z,72.25
2017-07-26T00:30:57.219Z,71.60
2017-07-26T00:31:01.220Z,69.60
2017-07-26T00:31:05.232Z,68.95
2017-07-26T00:31:09.244Z,70.25
2017-07-26T00:31:14.009Z,69.75
2017-07-26T00:31:18.010Z,70.63
2017-07-26T00:31:22.023Z,70.05
2017-07-26T00:31:26.041Z,68.05
2017-07-26T00:31:30.811Z,66.80
2017-07-26T00:31:34.820Z,66.53
2017-07-26T00:31:39.617Z,65.65
2017-07-26T00:31:43.617Z,63.90
2017-07-26T00:31:47.632Z,63.25
2017-07-26T00:31:51.643Z,62.75
2017-07-26T00:31:56.438Z,62.10
2017-07-26T00:32:00.449Z,61.87
2017-07-26T00:32:04.450Z,62.50
2017-07-26T00:32:08.469Z,60.00
2017-07-26T00:32:12.490Z,60.40
2017-07-26T00:32:16.511Z,61.15
2017-07-26T00:32:20.532Z,59.95
2017-07-26T00:32:25.338Z,60.70
2017-07-26T00:32:30.100Z,61.17
2017-07-26T00:32:34.118Z,62.87
2017-07-26T00:32:38.132Z,63.70
2017-07-26T00:32:42.901Z,65.05
2017-07-26T00:32:46.901Z,65.80
2017-07-26T00:32:50.915Z,65.90
2017-07-26T00:32:54.926Z,66.50
2017-07-26T00:32:58.921Z,66.95
2017-07-26T00:33:03.693Z,67.05
2017-07-26T00:33:07.701Z,68.20
2017-07-26T00:33:11.697Z,68.30
2017-07-26T00:33:15.698Z,66.80
2017-07-26T00:33:19.705Z,67.35
2017-07-26T00:33:23.705Z,66.80
2017-07-26T00:33:28.473Z,65.95
2017-07-26T00:33:32.479Z,65.00
2017-07-26T00:33:36.476Z,63.40
2017-07-26T00:33:40.495Z,63.00
2017-07-26T00:33:44.503Z,61.55
2017-07-26T00:33:49.278Z,62.80
2017-07-26T00:33:53.278Z,63.27
2017-07-26T00:33:57.280Z,63.45
2017-07-26T00:34:01.302Z,63.25
2017-07-26T00:34:06.066Z,64.10
2017-07-26T00:34:10.084Z,64.47
2017-07-26T00:34:14.099Z,64.60
2017-07-26T00:34:18.112Z,63.25
2017-07-26T00:34:22.147Z,62.35
2017-07-26T00:34:26.152Z,62.70
2017-07-26T00:34:30.178Z,62.70
2017-07-26T00:34:34.208Z,62.75
2017-07-26T00:34:38.221Z,63.35
2017-07-26T00:34:42.217Z,63.80
2017-07-26T00:34:46.235Z,64.85
2017-07-26T00:34:50.249Z,64.35
2017-07-26T00:34:54.271Z,64.05
2017-07-26T00:34:58.283Z,64.15
2017-07-26T00:35:02.315Z,64.25
2017-07-26T00:35:06.316Z,63.25
2017-07-26T00:35:10.323Z,63.15
2017-07-26T00:35:15.089Z,63.10
2017-07-26T00:35:19.106Z,63.00
2017-07-26T00:35:23.150Z,63.40
2017-07-26T00:35:27.140Z,63.30
2017-07-26T00:35:31.148Z,63.70
2017-07-26T00:35:35.176Z,63.60
2017-07-26T00:35:39.190Z,63.50
2017-07-26T00:35:43.209Z,63.70
2017-07-26T00:35:47.987Z,64.40
2017-07-26T00:35:51.986Z,63.90
2017-07-26T00:35:56.002Z,64.20
2017-07-26T00:36:00.775Z,64.45
2017-07-26T00:36:04.781Z,64.43
2017-07-26T00:36:08.807Z,63.50
2017-07-26T00:36:13.581Z,64.00
2017-07-26T00:36:17.573Z,64.37
2017-07-26T00:36:21.582Z,64.90
2017-07-26T00:36:25.597Z,65.45
2017-07-26T00:36:30.383Z,66.80
2017-07-26T00:36:34.392Z,66.83
2017-07-26T00:36:39.175Z,66.95
2017-07-26T00:36:43.165Z,66.40
2017-07-26T00:36:47.187Z,66.00
2017-07-26T00:36:51.208Z,66.20
2017-07-26T00:36:55.987Z,66.25
2017-07-26T00:36:59.985Z,66.30
2017-07-26T00:37:04.008Z,65.70
2017-07-26T00:37:08.772Z,66.35
2017-07-26T00:37:12.776Z,67.00
2017-07-26T00:37:16.826Z,68.10
2017-07-26T00:37:20.838Z,67.95
2017-07-26T00:37:24.853Z,68.10
2017-07-26T00:37:28.854Z,67.50
2017-07-26T00:37:32.886Z,68.65
2017-07-26T00:37:37.650Z,69.20
2017-07-26T00:37:41.681Z,69.00
2017-07-26T00:37:46.457Z,68.25
2017-07-26T00:37:50.471Z,67.43
2017-07-26T00:37:54.475Z,66.50
2017-07-26T00:37:58.471Z,65.70
2017-07-26T00:38:03.233Z,67.45
2017-07-26T00:38:07.247Z,68.97
2017-07-26T00:38:11.259Z,73.10
2017-07-26T00:38:16.774Z,73.25
2017-07-26T00:38:20.768Z,73.82
2017-07-26T00:38:24.783Z,73.30
2017-07-26T00:38:28.808Z,73.05
2017-07-26T00:38:32.838Z,73.05
2017-07-26T00:38:36.850Z,73.25
2017-07-26T00:38:40.875Z,73.00
2017-07-26T00:38:45.656Z,72.80
2017-07-26T00:38:49.677Z,74.33
2017-07-26T00:38:53.673Z,76.90
2017-07-26T00:38:58.445Z,77.20
2017-07-26T00:39:02.448Z,75.30
2017-07-26T00:39:06.467Z,74.20
2017-07-26T00:39:10.477Z,69.65
2017-07-26T00:39:14.496Z,68.30
2017-07-26T00:39:18.516Z,67.45
2017-07-26T00:39:22.509Z,67.60
2017-07-26T00:39:26.512Z,66.85
2017-07-26T00:39:30.516Z,65.55
2017-07-26T00:39:34.551Z,63.70
2017-07-26T00:39:39.315Z,63.75
2017-07-26T00:39:43.326Z,64.45
2017-07-26T00:39:47.336Z,64.70
2017-07-26T00:39:52.116Z,64.25
2017-07-26T00:39:56.108Z,64.03
2017-07-26T00:40:00.138Z,65.00
2017-07-26T00:40:04.112Z,66.50
2017-07-26T00:40:08.109Z,66.25
2017-07-26T00:40:12.144Z,66.60
2017-07-26T00:40:16.149Z,67.05
2017-07-26T00:40:20.164Z,66.75
2017-07-26T00:40:24.160Z,66.75
2017-07-26T00:40:28.169Z,69.10
2017-07-26T00:40:32.189Z,69.70
2017-07-26T00:40:36.184Z,70.95
2017-07-26T00:40:40.967Z,72.35
2017-07-26T00:40:45.015Z,72.80
2017-07-26T00:40:49.011Z,71.90
2017-07-26T00:40:53.084Z,71.25
2017-07-26T00:40:57.846Z,70.10
2017-07-26T00:41:01.860Z,69.60
2017-07-26T00:41:05.876Z,68.60
2017-07-26T00:41:09.894Z,68.30
2017-07-26T00:41:14.657Z,67.55
2017-07-26T00:41:18.656Z,68.10
2017-07-26T00:41:22.656Z,69.00
2017-07-26T00:41:26.662Z,68.05
2017-07-26T00:41:30.660Z,67.10
2017-07-26T00:41:34.676Z,66.40
2017-07-26T00:41:39.464Z,65.75
2017-07-26T00:41:43.464Z,65.30
2017-07-26T00:41:48.240Z,63.80
2017-07-26T00:41:52.264Z,64.07
2017-07-26T00:41:56.272Z,64.50
2017-07-26T00:42:01.041Z,64.95
2017-07-26T00:42:05.073Z,65.97
2017-07-26T00:42:09.083Z,68.30
2017-07-26T00:42:13.877Z,68.00
2017-07-26T00:42:17.906Z,66.77
2017-07-26T00:42:21.968Z,66.35
2017-07-26T00:42:25.969Z,66.30
2017-07-26T00:42:30.745Z,66.65
2017-07-26T00:42:34.759Z,68.25
2017-07-26T00:42:38.793Z,67.17
2017-07-26T00:42:42.811Z,66.85
2017-07-26T00:42:46.830Z,67.55
2017-07-26T00:42:50.841Z,68.75
2017-07-26T00:42:54.853Z,71.25
2017-07-26T00:42:59.631Z,70.90
2017-07-26T00:43:03.641Z,69.35
2017-07-26T00:43:07.658Z,67.93
2017-07-26T00:43:12.445Z,69.80
2017-07-26T00:43:16.456Z,71.15
2017-07-26T00:43:20.611Z,72.00
2017-07-26T00:43:24.609Z,72.00
2017-07-26T00:43:28.624Z,72.05
2017-07-26T00:43:32.616Z,70.70
2017-07-26T00:43:36.628Z,70.10
2017-07-26T00:43:41.411Z,70.00
2017-07-26T00:43:45.418Z,69.75
2017-07-26T00:43:49.412Z,69.65
2017-07-26T00:43:53.442Z,66.90
2017-07-26T00:43:58.225Z,66.45
2017-07-26T00:44:02.223Z,69.00
2017-07-26T00:44:06.225Z,69.30
2017-07-26T00:44:11.046Z,68.25
2017-07-26T00:44:15.823Z,67.30
2017-07-26T00:44:19.821Z,66.90
2017-07-26T00:44:23.929Z,66.15
2017-07-26T00:44:27.919Z,65.75
2017-07-26T00:44:31.942Z,65.90
2017-07-26T00:44:36.717Z,66.60
2017-07-26T00:44:40.734Z,66.93
2017-07-26T00:44:44.766Z,68.45
2017-07-26T00:44:48.772Z,70.10
2017-07-26T00:44:52.796Z,69.65
2017-07-26T00:44:56.823Z,69.65
2017-07-26T00:45:00.850Z,67.95
2017-07-26T00:45:04.845Z,67.75
2017-07-26T00:45:08.884Z,68.35
2017-07-26T00:45:12.907Z,67.45
2017-07-26T00:45:17.687Z,65.55
2017-07-26T00:45:21.709Z,66.80
2017-07-26T00:45:25.728Z,67.50
2017-07-26T00:45:29.720Z,67.75
2017-07-26T00:45:33.725Z,67.90
2017-07-26T00:45:37.756Z,68.30
2017-07-26T00:45:41.790Z,69.15
2017-07-26T00:45:47.018Z,67.50
2017-07-26T00:45:51.852Z,66.87
2017-07-26T00:45:55.867Z,67.05
2017-07-26T00:45:59.962Z,67.30
2017-07-26T00:46:03.974Z,67.05
2017-07-26T00:46:07.991Z,65.37
2017-07-26T00:46:11.999Z,65.25
2017-07-26T00:46:16.779Z,65.40
2017-07-26T00:46:20.807Z,64.70
2017-07-26T00:46:24.804Z,65.40
2017-07-26T00:46:28.823Z,65.25
2017-07-26T00:46:32.834Z,65.00
2017-07-26T00:46:36.854Z,65.55
2017-07-26T00:46:40.870Z,64.30
2017-07-26T00:46:44.870Z,63.25
2017-07-26T00:46:48.865Z,62.80
2017-07-26T00:46:52.887Z,62.35
2017-07-26T00:46:56.912Z,61.05
2017-07-26T00:47:00.925Z,60.85
2017-07-26T00:47:04.965Z,61.35
2017-07-26T00:47:08.962Z,61.10
2017-07-26T00:47:12.970Z,61.20
2017-07-26T00:47:17.003Z,61.40
2017-07-26T00:47:21.019Z,60.85
2017-07-26T00:47:25.030Z,60.15
2017-07-26T00:47:29.056Z,59.55
2017-07-26T00:47:33.030Z,58.75
2017-07-26T00:47:37.042Z,57.80
2017-07-26T00:47:41.038Z,57.50
2017-07-26T00:47:45.042Z,57.60
2017-07-26T00:47:49.036Z,57.65
2017-07-26T00:47:53.059Z,59.10
2017-07-26T00:47:57.076Z,59.05
2017-07-26T00:48:01.105Z,58.95
2017-07-26T00:48:05.107Z,59.55
2017-07-26T00:48:09.134Z,61.30
2017-07-26T00:48:13.138Z,61.85
2017-07-26T00:48:17.146Z,61.40
2017-07-26T00:48:21.159Z,60.80
2017-07-26T00:48:25.171Z,60.10
2017-07-26T00:48:29.189Z,60.00
2017-07-26T00:48:33.205Z,59.85
2017-07-26T00:48:37.987Z,59.75
2017-07-26T00:48:41.982Z,59.17
2017-07-26T00:48:46.003Z,58.95
2017-07-26T00:48:50.007Z,58.30
2017-07-26T00:48:54.773Z,57.80
2017-07-26T00:48:58.777Z,58.57
2017-07-26T00:49:02.803Z,59.10
2017-07-26T00:49:06.800Z,59.25
2017-07-26T00:49:11.589Z,57.85
2017-07-26T00:49:15.590Z,58.70
2017-07-26T00:49:19.608Z,59.05
2017-07-26T00:49:24.395Z,59.55
2017-07-26T00:49:28.419Z,60.40
2017-07-26T00:49:33.198Z,61.35
2017-07-26T00:49:37.218Z,61.83
2017-07-26T00:49:41.234Z,62.60
2017-07-26T00:49:45.259Z,63.35
2017-07-26T00:49:49.281Z,63.05
2017-07-26T00:49:53.288Z,62.65
2017-07-26T00:49:57.310Z,62.20
2017-07-26T00:50:01.344Z,61.65
2017-07-26T00:50:05.367Z,60.95
2017-07-26T00:50:09.378Z,60.90
2017-07-26T00:50:13.399Z,60.40
2017-07-26T00:50:17.398Z,59.90
2017-07-26T00:50:21.409Z,58.90
2017-07-26T00:50:25.423Z,58.45
2017-07-26T00:50:29.428Z,58.70
2017-07-26T00:50:33.444Z,58.00
2017-07-26T00:50:38.232Z,58.35
2017-07-26T00:50:42.229Z,57.97
2017-07-26T00:50:46.246Z,57.40
2017-07-26T00:50:51.026Z,57.35
2017-07-26T00:50:55.043Z,56.27
2017-07-26T00:50:59.072Z,56.35
2017-07-26T00:51:03.135Z,56.80
2017-07-26T00:51:07.147Z,56.90
2017-07-26T00:51:11.942Z,57.05
2017-07-26T00:51:15.964Z,56.43
2017-07-26T00:51:19.972Z,57.50
2017-07-26T00:51:24.005Z,57.90
2017-07-26T00:51:28.008Z,57.35
2017-07-26T00:51:32.039Z,58.10
2017-07-26T00:51:36.055Z,57.40
2017-07-26T00:51:40.088Z,57.35
2017-07-26T00:51:44.143Z,57.65
2017-07-26T00:51:48.137Z,58.60
2017-07-26T00:51:52.175Z,58.95
2017-07-26T00:51:56.178Z,59.20
2017-07-26T00:52:00.266Z,59.55
2017-07-26T00:52:04.274Z,58.85
2017-07-26T00:52:08.289Z,58.70
2017-07-26T00:52:12.288Z,59.80
2017-07-26T00:52:16.342Z,59.85
2017-07-26T00:52:20.340Z,59.00
2017-07-26T00:52:24.370Z,59.00
2017-07-26T00:52:28.402Z,58.80
2017-07-26T00:52:32.388Z,57.70
2017-07-26T00:52:36.455Z,57.60
2017-07-26T00:52:40.456Z,56.55
2017-07-26T00:52:44.478Z,55.60
2017-07-26T00:52:48.490Z,54.30
2017-07-26T00:52:52.499Z,54.60
2017-07-26T00:52:56.516Z,54.90
2017-07-26T00:53:01.283Z,53.80
2017-07-26T00:53:05.292Z,53.65
2017-07-26T00:53:09.302Z,52.45
2017-07-26T00:53:13.312Z,52.35
2017-07-26T00:53:18.081Z,53.80
2017-07-26T00:53:22.099Z,53.40
2017-07-26T00:53:26.096Z,54.45
2017-07-26T00:53:30.108Z,55.10